Time,TemperatureF,DewpointF,PressureIn,WindDirection,WindDirectionDegrees,WindSpeedMPH,WindSpeedGustMPH,Humidity,HourlyPrecipIn,Conditions,Clouds,dailyrainin,SoftwareType,DateUTC
2013-09-28 00:01:00,51.1,48.6,30.26,West,268,0.0,0.0,91,0.00,RA,,0.00,WeatherDisplay:10.37,2013-09-28 04:01:00,
2013-09-28 00:02:00,51.0,48.5,30.26,West,268,0.0,0.0,91,0.00,RA,,0.00,WeatherDisplay:10.37,2013-09-28 04:02:00,
2013-09-28 00:07:00,50.6,48.1,30.26,West,269,0.0,0.0,91,0.00,RA,,0.00,WeatherDisplay:10.37,2013-09-28 04:07:00,
2013-09-28 00:12:00,50.3,47.8,30.26,West,268,0.0,0.0,91,0.00,,,0.00,WeatherDisplay:10.37,2013-09-28 04:12:00,
2013-09-28 00:17:00,50.1,47.6,30.26,West,268,0.0,0.0,91,0.00,,,0.00,WeatherDisplay:10.37,2013-09-28 04:17:00,
2013-09-28 00:22:00,50.1,47.3,30.26,West,269,0.0,0.0,90,0.00,,,0.00,WeatherDisplay:10.37,2013-09-28 04:22:00,
2013-09-28 00:27:00,50.0,47.2,30.26,West,269,0.0,0.0,90,0.00,,,0.00,WeatherDisplay:10.37,2013-09-28 04:27:00,
2013-09-28 00:32:00,49.8,47.0,30.26,West,269,0.0,0.0,90,0.00,,,0.00,WeatherDisplay:10.37,2013-09-28 04:32:00,
2013-09-28 00:37:00,49.6,47.1,30.26,West,269,0.0,0.0,91,0.00,,,0.00,WeatherDisplay:10.37,2013-09-28 04:37:00,
2013-09-28 00:42:00,49.3,46.5,30.27,West,269,0.0,0.0,90,0.00,,,0.00,WeatherDisplay:10.37,2013-09-28 04:42:00,
2013-09-28 00:47:00,49.1,46.3,30.27,West,268,0.0,0.0,90,0.00,,,0.00,WeatherDisplay:10.37,2013-09-28 04:47:00,
2013-09-28 00:52:00,49.0,46.2,30.27,West,269,0.0,0.0,90,0.00,,,0.00,WeatherDisplay:10.37,2013-09-28 04:52:00,
2013-09-28 00:57:00,48.9,46.1,30.27,West,269,0.0,0.0,90,0.00,,,0.00,WeatherDisplay:10.37,2013-09-28 04:57:00,
2013-09-28 01:02:00,48.8,46.0,30.27,West,269,0.0,0.0,90,0.00,,,0.00,WeatherDisplay:10.37,2013-09-28 05:02:00,
2013-09-28 01:07:00,48.7,45.9,30.27,West,268,0.0,0.0,90,0.00,,,0.00,WeatherDisplay:10.37,2013-09-28 05:07:00,
2013-09-28 01:12:00,48.5,45.7,30.27,West,269,0.0,0.0,90,0.00,,,0.00,WeatherDisplay:10.37,2013-09-28 05:12:00,
2013-09-28 01:17:00,48.2,45.7,30.27,West,268,0.0,0.0,91,0.00,,,0.00,WeatherDisplay:10.37,2013-09-28 05:17:00,
2013-09-28 01:22:00,48.0,45.5,30.27,West,268,0.0,0.0,91,0.00,,,0.00,WeatherDisplay:10.37,2013-09-28 05:22:00,
2013-09-28 01:27:00,47.9,45.1,30.27,West,269,0.0,0.0,90,0.00,,,0.00,WeatherDisplay:10.37,2013-09-28 05:27:00,
2013-09-28 01:32:00,47.8,45.0,30.27,West,269,0.0,0.0,90,0.00,,,0.00,WeatherDisplay:10.37,2013-09-28 05:32:00,
2013-09-28 01:37:00,47.7,44.9,30.27,West,269,0.0,0.0,90,0.00,,,0.00,WeatherDisplay:10.37,2013-09-28 05:37:00,
2013-09-28 01:42:00,47.6,44.8,30.28,West,269,0.0,0.0,90,0.00,,,0.00,WeatherDisplay:10.37,2013-09-28 05:42:00,
2013-09-28 01:47:00,47.5,44.7,30.28,West,268,0.0,0.0,90,0.00,,,0.00,WeatherDisplay:10.37,2013-09-28 05:47:00,
2013-09-28 01:53:00,47.4,44.6,30.28,West,269,0.0,0.0,90,0.00,,,0.00,WeatherDisplay:10.37,2013-09-28 05:53:00,
2013-09-28 01:58:00,47.2,44.4,30.28,West,269,0.0,0.0,90,0.00,,,0.00,WeatherDisplay:10.37,2013-09-28 05:58:00,
2013-09-28 02:03:00,47.1,44.3,30.28,West,269,0.0,0.0,90,0.00,,,0.00,WeatherDisplay:10.37,2013-09-28 06:03:00,
2013-09-28 02:08:00,47.0,44.2,30.28,West,268,0.0,0.0,90,0.00,,,0.00,WeatherDisplay:10.37,2013-09-28 06:08:00,
2013-09-28 02:13:00,46.9,44.1,30.28,West,269,0.0,0.0,90,0.00,,,0.00,WeatherDisplay:10.37,2013-09-28 06:13:00,
2013-09-28 02:18:00,47.0,44.2,30.28,West,269,0.0,0.0,90,0.00,,,0.00,WeatherDisplay:10.37,2013-09-28 06:18:00,
2013-09-28 02:23:00,46.9,44.1,30.28,West,268,0.0,0.0,90,0.00,,,0.00,WeatherDisplay:10.37,2013-09-28 06:23:00,
2013-09-28 02:28:00,46.9,44.1,30.28,West,268,0.0,0.0,90,0.00,,,0.00,WeatherDisplay:10.37,2013-09-28 06:28:00,
2013-09-28 02:33:00,47.0,43.9,30.28,West,269,0.0,0.0,89,0.00,,,0.00,WeatherDisplay:10.37,2013-09-28 06:33:00,
2013-09-28 02:38:00,47.2,44.1,30.28,West,268,0.0,0.0,89,0.00,,,0.00,WeatherDisplay:10.37,2013-09-28 06:38:00,
2013-09-28 02:43:00,47.3,44.2,30.28,West,269,0.0,0.0,89,0.00,,,0.00,WeatherDisplay:10.37,2013-09-28 06:43:00,
2013-09-28 02:48:00,47.4,44.3,30.28,West,269,0.0,0.0,89,0.00,,,0.00,WeatherDisplay:10.37,2013-09-28 06:48:00,
2013-09-28 02:53:00,47.4,44.3,30.28,West,269,0.0,0.0,89,0.00,,,0.00,WeatherDisplay:10.37,2013-09-28 06:53:00,
2013-09-28 02:58:00,47.5,44.4,30.28,West,268,0.0,0.0,89,0.00,,,0.00,WeatherDisplay:10.37,2013-09-28 06:58:00,
2013-09-28 03:03:00,47.7,44.6,30.28,West,268,0.0,0.0,89,0.00,,,0.00,WeatherDisplay:10.37,2013-09-28 07:03:00,
2013-09-28 03:08:00,48.1,45.3,30.28,West,268,0.0,0.0,90,0.00,,,0.00,WeatherDisplay:10.37,2013-09-28 07:08:00,
2013-09-28 03:13:00,48.3,45.5,30.28,West,268,0.0,0.0,90,0.00,,,0.00,WeatherDisplay:10.37,2013-09-28 07:13:00,
2013-09-28 03:18:00,48.4,45.6,30.28,West,268,0.0,0.0,90,0.00,,,0.00,WeatherDisplay:10.37,2013-09-28 07:18:00,
2013-09-28 03:23:00,48.6,45.8,30.28,West,269,0.0,0.0,90,0.00,,,0.00,WeatherDisplay:10.37,2013-09-28 07:23:00,
2013-09-28 03:28:00,48.7,45.9,30.28,West,269,0.0,0.0,90,0.00,,,0.00,WeatherDisplay:10.37,2013-09-28 07:28:00,
2013-09-28 03:33:00,48.5,45.7,30.28,West,268,0.0,0.0,90,0.00,,,0.00,WeatherDisplay:10.37,2013-09-28 07:33:00,
2013-09-28 03:38:00,48.2,45.4,30.28,West,269,0.0,0.0,90,0.00,,,0.00,WeatherDisplay:10.37,2013-09-28 07:38:00,
2013-09-28 03:43:00,48.1,45.3,30.28,West,269,0.0,0.0,90,0.00,,,0.00,WeatherDisplay:10.37,2013-09-28 07:43:00,
2013-09-28 03:48:00,48.3,45.5,30.28,West,269,0.0,0.0,90,0.00,,,0.00,WeatherDisplay:10.37,2013-09-28 07:48:00,
2013-09-28 03:53:00,48.4,45.6,30.28,West,269,0.0,0.0,90,0.00,,,0.00,WeatherDisplay:10.37,2013-09-28 07:53:00,
2013-09-28 03:58:00,48.5,45.7,30.28,West,268,0.0,0.0,90,0.00,,,0.00,WeatherDisplay:10.37,2013-09-28 07:58:00,
2013-09-28 04:03:00,48.2,45.4,30.28,West,269,0.0,0.0,90,0.00,,,0.00,WeatherDisplay:10.37,2013-09-28 08:03:00,
2013-09-28 04:08:00,48.0,45.2,30.28,West,268,0.0,0.0,90,0.00,,,0.00,WeatherDisplay:10.37,2013-09-28 08:08:00,
2013-09-28 04:13:00,47.8,45.0,30.28,West,268,0.0,0.0,90,0.00,,,0.00,WeatherDisplay:10.37,2013-09-28 08:13:00,
2013-09-28 04:18:00,47.8,45.0,30.28,West,269,0.0,0.0,90,0.00,,,0.00,WeatherDisplay:10.37,2013-09-28 08:18:00,
2013-09-28 04:23:00,47.8,45.0,30.28,West,269,0.0,0.0,90,0.00,,,0.00,WeatherDisplay:10.37,2013-09-28 08:23:00,
2013-09-28 04:28:00,47.8,45.0,30.28,West,269,0.0,0.0,90,0.00,,,0.00,WeatherDisplay:10.37,2013-09-28 08:28:00,
2013-09-28 04:33:00,47.8,45.0,30.28,West,269,0.0,0.0,90,0.00,,,0.00,WeatherDisplay:10.37,2013-09-28 08:33:00,
2013-09-28 04:38:00,47.9,45.1,30.28,WSW,250,0.0,0.0,90,0.00,,,0.00,WeatherDisplay:10.37,2013-09-28 08:38:00,
2013-09-28 04:43:00,48.5,45.7,30.28,SW,225,0.0,0.0,90,0.00,,,0.00,WeatherDisplay:10.37,2013-09-28 08:43:00,
2013-09-28 04:48:00,48.7,45.9,30.28,SW,224,0.0,0.0,90,0.00,,,0.00,WeatherDisplay:10.37,2013-09-28 08:48:00,
2013-09-28 04:53:00,48.7,45.9,30.29,SW,224,0.0,0.0,90,0.00,,,0.00,WeatherDisplay:10.37,2013-09-28 08:53:00,
2013-09-28 04:58:00,48.8,46.3,30.29,SW,224,0.0,0.0,91,0.00,,,0.00,WeatherDisplay:10.37,2013-09-28 08:58:00,
2013-09-28 05:03:00,48.9,46.4,30.28,SW,224,0.0,0.0,91,0.00,,,0.00,WeatherDisplay:10.37,2013-09-28 09:03:00,
2013-09-28 05:08:00,48.8,46.3,30.29,SW,225,0.0,0.0,91,0.00,,,0.00,WeatherDisplay:10.37,2013-09-28 09:08:00,
2013-09-28 05:13:00,48.6,46.1,30.29,SW,224,0.0,0.0,91,0.00,,,0.00,WeatherDisplay:10.37,2013-09-28 09:13:00,
2013-09-28 05:18:00,48.3,45.5,30.29,SW,224,0.0,0.0,90,0.00,,,0.00,WeatherDisplay:10.37,2013-09-28 09:18:00,
2013-09-28 05:23:00,48.2,45.4,30.29,SW,224,0.0,0.0,90,0.00,,,0.00,WeatherDisplay:10.37,2013-09-28 09:23:00,
2013-09-28 05:28:00,48.0,45.2,30.29,SW,224,0.0,0.0,90,0.00,,,0.00,WeatherDisplay:10.37,2013-09-28 09:28:00,
2013-09-28 05:33:00,48.0,45.2,30.29,SW,224,0.0,0.0,90,0.00,,,0.00,WeatherDisplay:10.37,2013-09-28 09:33:00,
2013-09-28 05:38:00,47.9,45.1,30.29,SW,224,0.0,0.0,90,0.00,,,0.00,WeatherDisplay:10.37,2013-09-28 09:38:00,
2013-09-28 05:43:00,47.7,44.9,30.29,SW,224,0.0,0.0,90,0.00,,,0.00,WeatherDisplay:10.37,2013-09-28 09:43:00,
2013-09-28 05:48:00,47.5,44.7,30.30,SW,224,0.0,0.0,90,0.00,,,0.00,WeatherDisplay:10.37,2013-09-28 09:48:00,
2013-09-28 05:53:00,47.3,44.5,30.30,SW,224,0.0,0.0,90,0.00,,,0.00,WeatherDisplay:10.37,2013-09-28 09:53:00,
2013-09-28 05:58:00,47.2,44.4,30.30,SW,224,0.0,0.0,90,0.00,,,0.00,WeatherDisplay:10.37,2013-09-28 09:58:00,
2013-09-28 06:03:00,47.1,44.3,30.29,SW,224,0.0,0.0,90,0.00,,,0.00,WeatherDisplay:10.37,2013-09-28 10:03:00,
2013-09-28 06:08:00,47.1,44.3,30.30,SW,224,0.0,0.0,90,0.00,,,0.00,WeatherDisplay:10.37,2013-09-28 10:08:00,
2013-09-28 06:13:00,47.0,44.2,30.29,SW,224,0.0,0.0,90,0.00,,,0.00,WeatherDisplay:10.37,2013-09-28 10:13:00,
2013-09-28 06:18:00,46.9,44.1,30.30,SW,224,0.0,0.0,90,0.00,,,0.00,WeatherDisplay:10.37,2013-09-28 10:18:00,
2013-09-28 06:23:00,47.0,44.2,30.30,SW,224,0.0,0.0,90,0.00,,,0.00,WeatherDisplay:10.37,2013-09-28 10:23:00,
2013-09-28 06:28:00,46.8,44.0,30.30,SW,224,0.0,0.0,90,0.00,,,0.00,WeatherDisplay:10.37,2013-09-28 10:28:00,
2013-09-28 06:33:00,46.7,43.9,30.30,SW,224,0.0,0.0,90,0.00,,,0.00,WeatherDisplay:10.37,2013-09-28 10:33:00,
2013-09-28 06:38:00,46.5,43.7,30.30,SW,224,0.0,0.0,90,0.00,,,0.00,WeatherDisplay:10.37,2013-09-28 10:38:00,
2013-09-28 06:43:00,46.4,43.6,30.30,SW,224,0.0,0.0,90,0.00,,,0.00,WeatherDisplay:10.37,2013-09-28 10:43:00,
2013-09-28 06:48:00,46.4,43.6,30.31,SW,224,0.0,0.0,90,0.00,,,0.00,WeatherDisplay:10.37,2013-09-28 10:48:00,
2013-09-28 06:53:00,46.3,43.5,30.31,SW,224,0.0,0.0,90,0.00,,,0.00,WeatherDisplay:10.37,2013-09-28 10:53:00,
2013-09-28 06:58:00,46.2,43.4,30.31,SW,224,0.0,0.0,90,0.00,,,0.00,WeatherDisplay:10.37,2013-09-28 10:58:00,
2013-09-28 07:04:00,46.0,43.2,30.31,SW,224,0.0,0.0,90,0.00,CLR,,0.00,WeatherDisplay:10.37,2013-09-28 11:04:00,
2013-09-28 07:09:00,46.0,43.2,30.31,SW,224,0.0,0.0,90,0.00,CLR,,0.00,WeatherDisplay:10.37,2013-09-28 11:09:00,
2013-09-28 07:14:00,46.0,43.2,30.31,SW,225,0.0,0.0,90,0.00,CLR,,0.00,WeatherDisplay:10.37,2013-09-28 11:14:00,
2013-09-28 07:19:00,45.9,43.1,30.32,SW,224,0.0,0.0,90,0.00,CLR,,0.00,WeatherDisplay:10.37,2013-09-28 11:19:00,
2013-09-28 07:24:00,46.1,43.3,30.32,SW,224,0.0,0.0,90,0.01,RA,,0.01,WeatherDisplay:10.37,2013-09-28 11:24:00,
2013-09-28 07:29:00,46.3,43.8,30.32,SW,224,0.0,0.0,91,0.01,RA,,0.01,WeatherDisplay:10.37,2013-09-28 11:29:00,
2013-09-28 07:34:00,46.5,44.0,30.32,SW,224,0.0,0.0,91,0.01,CLR,,0.01,WeatherDisplay:10.37,2013-09-28 11:34:00,
2013-09-28 07:39:00,46.7,44.2,30.32,SW,224,0.0,0.0,91,0.01,CLR,,0.01,WeatherDisplay:10.37,2013-09-28 11:39:00,
2013-09-28 07:44:00,46.8,44.3,30.32,SW,224,0.0,0.0,91,0.01,CLR,,0.01,WeatherDisplay:10.37,2013-09-28 11:44:00,
2013-09-28 07:49:00,46.9,44.4,30.31,SW,224,0.0,0.0,91,0.01,CLR,,0.01,WeatherDisplay:10.37,2013-09-28 11:49:00,
2013-09-28 07:54:00,47.3,44.8,30.32,SW,217,0.0,0.0,91,0.01,CLR,,0.01,WeatherDisplay:10.37,2013-09-28 11:54:00,
2013-09-28 07:59:00,47.6,45.1,30.32,SW,217,0.0,0.0,91,0.01,CLR,,0.01,WeatherDisplay:10.37,2013-09-28 11:59:00,
2013-09-28 08:04:00,47.8,45.6,30.32,SW,215,0.0,0.0,92,0.01,CLR,,0.01,WeatherDisplay:10.37,2013-09-28 12:04:00,
2013-09-28 08:09:00,48.0,45.8,30.32,SW,215,0.0,0.0,92,0.01,CLR,,0.01,WeatherDisplay:10.37,2013-09-28 12:09:00,
2013-09-28 08:14:00,48.1,45.9,30.32,SW,215,0.0,0.0,92,0.01,CLR,,0.01,WeatherDisplay:10.37,2013-09-28 12:14:00,
2013-09-28 08:19:00,48.5,46.3,30.32,SW,215,0.0,0.0,92,0.01,CLR,,0.01,WeatherDisplay:10.37,2013-09-28 12:19:00,
2013-09-28 08:24:00,48.7,46.5,30.32,SW,215,0.0,0.0,92,0.00,CLR,,0.01,WeatherDisplay:10.37,2013-09-28 12:24:00,
2013-09-28 08:29:00,48.9,46.7,30.32,East,81,0.0,0.0,92,0.00,CLR,,0.01,WeatherDisplay:10.37,2013-09-28 12:29:00,
2013-09-28 08:34:00,49.2,47.0,30.32,SSE,159,0.0,0.0,92,0.00,CLR,,0.01,WeatherDisplay:10.37,2013-09-28 12:34:00,
2013-09-28 08:39:00,49.4,47.2,30.32,SSE,159,0.0,0.0,92,0.00,CLR,,0.01,WeatherDisplay:10.37,2013-09-28 12:39:00,
2013-09-28 08:44:00,49.8,47.6,30.32,SSW,195,0.0,0.0,92,0.00,CLR,,0.01,WeatherDisplay:10.37,2013-09-28 12:44:00,
2013-09-28 08:49:00,50.2,48.0,30.32,North,356,0.0,0.0,92,0.00,CLR,,0.01,WeatherDisplay:10.37,2013-09-28 12:49:00,
2013-09-28 08:54:00,50.6,48.4,30.32,SE,132,0.0,0.0,92,0.00,CLR,,0.01,WeatherDisplay:10.37,2013-09-28 12:54:00,
2013-09-28 08:59:00,51.0,48.8,30.32,SE,135,0.0,0.0,92,0.00,CLR,,0.01,WeatherDisplay:10.37,2013-09-28 12:59:00,
2013-09-28 09:04:00,51.2,49.0,30.33,SW,219,0.0,0.0,92,0.00,CLR,,0.01,WeatherDisplay:10.37,2013-09-28 13:04:00,
2013-09-28 09:09:00,51.5,49.3,30.32,ESE,123,2.3,2.3,92,0.00,CLR,,0.01,WeatherDisplay:10.37,2013-09-28 13:09:00,
2013-09-28 09:14:00,51.8,49.5,30.32,SSE,162,2.3,2.3,92,0.00,CLR,,0.01,WeatherDisplay:10.37,2013-09-28 13:14:00,
2013-09-28 09:19:00,52.1,49.8,30.32,SW,228,1.1,1.1,92,0.00,CLR,,0.01,WeatherDisplay:10.37,2013-09-28 13:19:00,
2013-09-28 09:24:00,52.3,50.0,30.32,South,172,1.0,1.0,92,0.00,CLR,,0.01,WeatherDisplay:10.37,2013-09-28 13:24:00,
2013-09-28 09:29:00,52.7,50.4,30.32,ESE,122,1.1,1.1,92,0.00,CLR,,0.01,WeatherDisplay:10.37,2013-09-28 13:29:00,
2013-09-28 09:34:00,53.1,50.8,30.32,SE,146,3.5,3.5,92,0.00,CLR,,0.01,WeatherDisplay:10.37,2013-09-28 13:34:00,
2013-09-28 09:39:00,53.4,51.1,30.32,SSE,148,1.1,0.0,92,0.00,CLR,,0.01,WeatherDisplay:10.37,2013-09-28 13:39:00,
2013-09-28 09:44:00,53.8,51.5,30.32,ESE,115,0.0,0.5,92,0.00,CLR,,0.01,WeatherDisplay:10.37,2013-09-28 13:44:00,
2013-09-28 09:49:00,54.3,52.0,30.32,SSW,210,2.3,2.3,92,0.00,CLR,,0.01,WeatherDisplay:10.37,2013-09-28 13:49:00,
2013-09-28 09:54:00,54.8,52.5,30.32,ENE,69,3.5,3.5,92,0.00,CLR,,0.01,WeatherDisplay:10.37,2013-09-28 13:54:00,
2013-09-28 09:59:00,55.3,53.0,30.32,ESE,120,0.0,0.0,92,0.00,CLR,,0.01,WeatherDisplay:10.37,2013-09-28 13:59:00,
2013-09-28 10:04:00,55.8,53.2,30.32,SE,146,1.1,1.1,91,0.00,CLR,,0.01,WeatherDisplay:10.37,2013-09-28 14:04:00,
2013-09-28 10:09:00,56.3,53.4,30.32,WSW,239,1.1,1.1,90,0.00,CLR,,0.01,WeatherDisplay:10.37,2013-09-28 14:09:00,
2013-09-28 10:14:00,56.9,54.0,30.32,SSE,151,1.1,1.1,90,0.00,CLR,,0.01,WeatherDisplay:10.37,2013-09-28 14:14:00,
2013-09-28 10:19:00,57.3,55.3,30.32,NNE,33,4.0,4.0,93,0.00,CLR,,0.01,WeatherDisplay:10.37,2013-09-28 14:19:00,
2013-09-28 10:24:00,57.7,55.7,30.32,SW,232,3.5,3.5,93,0.00,CLR,,0.01,WeatherDisplay:10.37,2013-09-28 14:24:00,
2013-09-28 10:29:00,58.1,55.8,30.32,ESE,122,3.5,3.5,92,0.00,CLR,,0.01,WeatherDisplay:10.37,2013-09-28 14:29:00,
2013-09-28 10:34:00,58.6,56.3,30.32,SSE,164,1.1,1.1,92,0.00,CLR,,0.01,WeatherDisplay:10.37,2013-09-28 14:34:00,
2013-09-28 10:39:00,59.2,56.3,30.32,SW,232,3.5,3.5,90,0.00,CLR,,0.01,WeatherDisplay:10.37,2013-09-28 14:39:00,
2013-09-28 10:44:00,59.8,56.9,30.32,SE,127,1.0,1.0,90,0.00,CLR,,0.01,WeatherDisplay:10.37,2013-09-28 14:44:00,
2013-09-28 10:49:00,60.3,56.7,30.32,ENE,70,2.0,2.0,88,0.00,CLR,,0.01,WeatherDisplay:10.37,2013-09-28 14:49:00,
2013-09-28 10:54:00,60.5,56.6,30.32,WSW,243,1.1,1.1,87,0.00,CLR,,0.01,WeatherDisplay:10.37,2013-09-28 14:54:00,
2013-09-28 10:59:00,61.0,56.5,30.32,SSW,198,3.5,3.5,85,0.00,CLR,,0.01,WeatherDisplay:10.37,2013-09-28 14:59:00,
2013-09-28 11:04:00,61.6,57.4,30.32,SW,229,2.3,2.3,86,0.00,CLR,,0.01,WeatherDisplay:10.37,2013-09-28 15:04:00,
2013-09-28 11:09:00,62.2,57.3,30.32,NE,56,3.5,3.5,84,0.00,CLR,,0.01,WeatherDisplay:10.37,2013-09-28 15:09:00,
2013-09-28 11:14:00,62.2,56.6,30.32,ENE,76,4.6,4.6,82,0.00,CLR,,0.01,WeatherDisplay:10.37,2013-09-28 15:14:00,
2013-09-28 11:19:00,62.4,57.5,30.31,ENE,61,3.5,3.5,84,0.00,CLR,,0.01,WeatherDisplay:10.37,2013-09-28 15:19:00,
2013-09-28 11:24:00,62.7,57.1,30.31,NNE,16,1.1,1.1,82,0.00,CLR,,0.01,WeatherDisplay:10.37,2013-09-28 15:24:00,
2013-09-28 11:29:00,63.3,57.7,30.31,SSE,149,2.3,2.3,82,0.00,CLR,,0.01,WeatherDisplay:10.37,2013-09-28 15:29:00,
2013-09-28 11:34:00,63.8,57.9,30.31,SW,221,1.1,1.1,81,0.00,CLR,,0.01,WeatherDisplay:10.37,2013-09-28 15:34:00,
2013-09-28 11:39:00,64.1,57.5,30.31,WSW,256,3.5,3.5,79,0.00,CLR,,0.01,WeatherDisplay:10.37,2013-09-28 15:39:00,
2013-09-28 11:44:00,64.4,58.1,30.31,SE,135,1.1,1.1,80,0.00,CLR,,0.01,WeatherDisplay:10.37,2013-09-28 15:44:00,
2013-09-28 11:49:00,65.1,57.7,30.31,WSW,240,3.5,3.5,77,0.00,CLR,,0.01,WeatherDisplay:10.37,2013-09-28 15:49:00,
2013-09-28 11:54:00,65.2,57.8,30.31,WSW,245,2.3,2.3,77,0.00,CLR,,0.01,WeatherDisplay:10.37,2013-09-28 15:54:00,
2013-09-28 11:59:00,65.7,58.3,30.31,NE,49,5.0,5.0,77,0.00,CLR,,0.01,WeatherDisplay:10.37,2013-09-28 15:59:00,
2013-09-28 12:04:00,65.8,57.3,30.31,SSW,195,3.5,3.5,74,0.00,CLR,,0.01,WeatherDisplay:10.37,2013-09-28 16:04:00,
2013-09-28 12:09:00,65.6,57.8,30.31,SW,231,2.3,2.3,76,0.00,CLR,,0.01,WeatherDisplay:10.37,2013-09-28 16:09:00,
2013-09-28 12:14:00,66.4,59.0,30.30,SSW,197,3.5,3.5,77,0.00,CLR,,0.01,WeatherDisplay:10.37,2013-09-28 16:14:00,
2013-09-28 12:19:00,66.6,58.4,30.30,ESE,114,2.3,2.3,75,0.00,CLR,,0.01,WeatherDisplay:10.37,2013-09-28 16:19:00,
2013-09-28 12:24:00,66.5,58.0,30.30,SE,146,3.5,3.5,74,0.00,CLR,,0.01,WeatherDisplay:10.37,2013-09-28 16:24:00,
2013-09-28 12:29:00,66.8,58.6,30.30,SE,137,1.1,1.1,75,0.00,CLR,,0.01,WeatherDisplay:10.37,2013-09-28 16:29:00,
2013-09-28 12:34:00,67.0,58.8,30.30,East,84,1.1,1.1,75,0.00,CLR,,0.01,WeatherDisplay:10.37,2013-09-28 16:34:00,
2013-09-28 12:39:00,67.3,58.3,30.30,WNW,283,3.0,3.0,73,0.00,CLR,,0.01,WeatherDisplay:10.37,2013-09-28 16:39:00,
2013-09-28 12:44:00,67.4,57.7,30.30,SSW,195,3.5,3.5,71,0.00,CLR,,0.01,WeatherDisplay:10.37,2013-09-28 16:44:00,
2013-09-28 12:49:00,67.7,58.3,30.30,SW,221,3.5,3.5,72,0.00,CLR,,0.01,WeatherDisplay:10.37,2013-09-28 16:49:00,
2013-09-28 12:54:00,68.2,58.4,30.30,SSW,201,2.3,2.3,71,0.00,CLR,,0.01,WeatherDisplay:10.37,2013-09-28 16:54:00,
2013-09-28 12:59:00,68.5,58.7,30.29,WSW,245,2.3,2.3,71,0.00,CLR,,0.01,WeatherDisplay:10.37,2013-09-28 16:59:00,
2013-09-28 13:04:00,68.8,59.0,30.29,East,88,3.0,3.0,71,0.00,CLR,,0.01,WeatherDisplay:10.37,2013-09-28 17:04:00,
2013-09-28 13:09:00,68.7,58.9,30.29,NE,54,2.3,2.3,71,0.00,CLR,,0.01,WeatherDisplay:10.37,2013-09-28 17:09:00,
2013-09-28 13:14:00,69.0,58.8,30.28,NNE,27,3.0,3.0,70,0.00,CLR,,0.01,WeatherDisplay:10.37,2013-09-28 17:14:00,
2013-09-28 13:19:00,69.0,59.2,30.28,NE,54,7.0,7.0,71,0.00,CLR,,0.01,WeatherDisplay:10.37,2013-09-28 17:19:00,
2013-09-28 13:24:00,68.9,58.3,30.28,SE,128,2.3,0.0,69,0.00,CLR,,0.01,WeatherDisplay:10.37,2013-09-28 17:24:00,
2013-09-28 13:29:00,69.1,59.3,30.28,WSW,243,2.3,2.3,71,0.00,CLR,,0.01,WeatherDisplay:10.37,2013-09-28 17:29:00,
2013-09-28 13:34:00,69.2,58.2,30.27,South,187,4.6,4.6,68,0.00,CLR,,0.01,WeatherDisplay:10.37,2013-09-28 17:34:00,
2013-09-28 13:39:00,69.5,58.5,30.27,ESE,114,4.6,4.6,68,0.00,CLR,,0.01,WeatherDisplay:10.37,2013-09-28 17:39:00,
2013-09-28 13:44:00,69.8,58.3,30.27,WSW,246,3.5,3.5,67,0.00,CLR,,0.01,WeatherDisplay:10.37,2013-09-28 17:44:00,
2013-09-28 13:49:00,69.9,58.9,30.27,ENE,59,8.1,8.1,68,0.00,CLR,,0.01,WeatherDisplay:10.37,2013-09-28 17:49:00,
2013-09-28 13:54:00,70.1,59.0,30.26,South,185,3.5,3.5,68,0.00,CLR,,0.01,WeatherDisplay:10.37,2013-09-28 17:54:00,
2013-09-28 13:59:00,70.4,58.1,30.26,WNW,290,2.3,2.3,65,0.00,CLR,,0.01,WeatherDisplay:10.37,2013-09-28 17:59:00,
2013-09-28 14:05:00,70.4,58.5,30.26,SSE,166,2.3,2.3,66,0.00,CLR,,0.01,WeatherDisplay:10.37,2013-09-28 18:05:00,
2013-09-28 14:10:00,70.4,58.1,30.26,SW,221,3.5,3.5,65,0.00,CLR,,0.01,WeatherDisplay:10.37,2013-09-28 18:10:00,
2013-09-28 14:15:00,70.3,60.1,30.26,ESE,103,3.5,3.5,70,0.00,CLR,,0.01,WeatherDisplay:10.37,2013-09-28 18:15:00,
2013-09-28 14:20:00,70.5,57.7,30.25,SE,125,3.5,3.5,64,0.00,CLR,,0.01,WeatherDisplay:10.37,2013-09-28 18:20:00,
2013-09-28 14:25:00,71.0,59.1,30.25,ESE,115,8.1,8.1,66,0.00,CLR,,0.01,WeatherDisplay:10.37,2013-09-28 18:25:00,
2013-09-28 14:30:00,71.1,57.9,30.25,WSW,240,3.5,3.5,63,0.00,CLR,,0.01,WeatherDisplay:10.37,2013-09-28 18:30:00,
2013-09-28 14:35:00,71.2,59.7,30.25,West,259,0.0,0.0,67,0.00,CLR,,0.01,WeatherDisplay:10.37,2013-09-28 18:35:00,
2013-09-28 14:40:00,71.5,58.2,30.25,WSW,248,3.5,3.5,63,0.00,CLR,,0.01,WeatherDisplay:10.37,2013-09-28 18:40:00,
2013-09-28 14:45:00,71.6,58.3,30.25,WSW,243,3.5,3.5,63,0.00,CLR,,0.01,WeatherDisplay:10.37,2013-09-28 18:45:00,
2013-09-28 14:50:00,71.5,58.7,30.25,East,100,1.1,2.0,64,0.00,CLR,,0.01,WeatherDisplay:10.37,2013-09-28 18:50:00,
2013-09-28 14:55:00,71.8,58.5,30.25,SSE,150,3.5,3.5,63,0.00,CLR,,0.01,WeatherDisplay:10.37,2013-09-28 18:55:00,
2013-09-28 15:01:00,71.7,58.0,30.24,WNW,291,1.1,1.1,62,0.00,CLR,,0.01,WeatherDisplay:10.37,2013-09-28 19:01:00,
2013-09-28 15:06:00,71.7,58.4,30.24,SW,218,2.3,2.3,63,0.00,CLR,,0.01,WeatherDisplay:10.37,2013-09-28 19:06:00,
2013-09-28 15:11:00,72.0,58.7,30.24,SE,139,1.1,1.1,63,0.00,CLR,,0.01,WeatherDisplay:10.37,2013-09-28 19:11:00,
2013-09-28 15:16:00,72.0,58.7,30.24,ENE,75,3.5,3.5,63,0.00,CLR,,0.01,WeatherDisplay:10.37,2013-09-28 19:16:00,
2013-09-28 15:21:00,71.9,58.6,30.24,SE,132,3.5,3.5,63,0.00,CLR,,0.01,WeatherDisplay:10.37,2013-09-28 19:21:00,
2013-09-28 15:26:00,71.7,58.4,30.24,South,190,6.9,6.9,63,0.00,CLR,,0.01,WeatherDisplay:10.37,2013-09-28 19:26:00,
2013-09-28 15:31:00,71.3,58.9,30.24,ESE,109,3.5,3.5,65,0.00,CLR,,0.01,WeatherDisplay:10.37,2013-09-28 19:31:00,
2013-09-28 15:36:00,70.9,58.5,30.24,SW,232,3.5,3.5,65,0.00,CLR,,0.01,WeatherDisplay:10.37,2013-09-28 19:36:00,
2013-09-28 15:41:00,71.1,58.3,30.23,SSW,198,1.1,1.1,64,0.00,CLR,,0.01,WeatherDisplay:10.37,2013-09-28 19:41:00,
2013-09-28 15:46:00,71.0,57.8,30.23,ESE,103,2.3,2.3,63,0.00,CLR,,0.01,WeatherDisplay:10.37,2013-09-28 19:46:00,
2013-09-28 15:51:00,71.1,57.9,30.23,North,9,2.3,2.3,63,0.00,CLR,,0.01,WeatherDisplay:10.37,2013-09-28 19:51:00,
2013-09-28 15:56:00,71.2,58.4,30.23,SE,145,3.5,3.5,64,0.00,CLR,,0.01,WeatherDisplay:10.37,2013-09-28 19:56:00,
2013-09-28 16:01:00,71.5,57.8,30.22,SE,144,3.5,3.5,62,0.00,CLR,,0.01,WeatherDisplay:10.37,2013-09-28 20:01:00,
2013-09-28 16:06:00,71.0,57.3,30.22,SSE,153,9.2,9.2,62,0.00,CLR,,0.01,WeatherDisplay:10.37,2013-09-28 20:06:00,
2013-09-28 16:11:00,70.6,57.4,30.22,NE,47,1.1,1.1,63,0.00,CLR,,0.01,WeatherDisplay:10.37,2013-09-28 20:11:00,
2013-09-28 16:16:00,70.5,57.7,30.22,SE,129,2.3,2.3,64,0.00,CLR,,0.01,WeatherDisplay:10.37,2013-09-28 20:16:00,
2013-09-28 16:21:00,70.3,57.1,30.21,SSW,211,1.1,1.1,63,0.00,CLR,,0.01,WeatherDisplay:10.37,2013-09-28 20:21:00,
2013-09-28 16:26:00,70.4,57.6,30.21,South,176,7.0,7.0,64,0.00,CLR,,0.01,WeatherDisplay:10.37,2013-09-28 20:26:00,
2013-09-28 16:31:00,70.4,58.1,30.21,SW,231,2.3,2.3,65,0.00,CLR,,0.01,WeatherDisplay:10.37,2013-09-28 20:31:00,
2013-09-28 16:36:00,70.3,58.8,30.21,NE,41,5.0,5.0,67,0.00,CLR,,0.01,WeatherDisplay:10.37,2013-09-28 20:36:00,
2013-09-28 16:41:00,69.8,58.3,30.21,WNW,282,2.3,2.3,67,0.00,CLR,,0.01,WeatherDisplay:10.37,2013-09-28 20:41:00,
2013-09-28 16:46:00,69.6,57.7,30.21,ESE,118,1.1,1.1,66,0.00,CLR,,0.01,WeatherDisplay:10.37,2013-09-28 20:46:00,
2013-09-28 16:51:00,69.4,58.0,30.21,SSE,158,2.0,2.0,67,0.00,CLR,,0.01,WeatherDisplay:10.37,2013-09-28 20:51:00,
2013-09-28 16:56:00,69.2,57.4,30.21,SW,236,1.1,1.1,66,0.00,CLR,,0.01,WeatherDisplay:10.37,2013-09-28 20:56:00,
2013-09-28 17:01:00,69.1,57.3,30.21,SSW,210,0.0,0.0,66,0.00,CLR,,0.01,WeatherDisplay:10.37,2013-09-28 21:01:00,
2013-09-28 17:06:00,68.9,57.1,30.21,SSE,153,4.0,4.0,66,0.00,CLR,,0.01,WeatherDisplay:10.37,2013-09-28 21:06:00,
2013-09-28 17:11:00,68.7,57.3,30.21,SSW,198,0.0,0.0,67,0.00,CLR,,0.01,WeatherDisplay:10.37,2013-09-28 21:11:00,
2013-09-28 17:16:00,68.5,57.5,30.21,North,9,2.3,2.3,68,0.00,CLR,,0.01,WeatherDisplay:10.37,2013-09-28 21:16:00,
2013-09-28 17:21:00,68.4,57.0,30.21,SE,129,4.6,4.6,67,0.00,CLR,,0.01,WeatherDisplay:10.37,2013-09-28 21:21:00,
2013-09-28 17:26:00,68.2,56.8,30.21,SSE,158,2.3,0.0,67,0.00,CLR,,0.01,WeatherDisplay:10.37,2013-09-28 21:26:00,
2013-09-28 17:32:00,68.1,56.7,30.21,SE,135,2.3,2.3,67,0.00,CLR,,0.01,WeatherDisplay:10.37,2013-09-28 21:32:00,
2013-09-28 17:37:00,67.8,57.3,30.21,SW,228,2.3,0.0,69,0.00,CLR,,0.01,WeatherDisplay:10.37,2013-09-28 21:37:00,
2013-09-28 17:42:00,67.5,56.6,30.22,SW,214,1.1,1.1,68,0.00,CLR,,0.01,WeatherDisplay:10.37,2013-09-28 21:42:00,
2013-09-28 17:47:00,67.3,56.8,30.21,SSE,156,1.1,1.1,69,0.00,CLR,,0.01,WeatherDisplay:10.37,2013-09-28 21:47:00,
2013-09-28 17:52:00,67.2,57.1,30.22,SSE,156,0.0,0.0,70,0.00,CLR,,0.01,WeatherDisplay:10.37,2013-09-28 21:52:00,
2013-09-28 17:57:00,66.9,57.2,30.22,West,259,2.3,2.3,71,0.00,CLR,,0.01,WeatherDisplay:10.37,2013-09-28 21:57:00,
2013-09-28 18:02:00,66.5,56.8,30.22,WNW,295,1.1,0.0,71,0.00,CLR,,0.01,WeatherDisplay:10.37,2013-09-28 22:02:00,
2013-09-28 18:07:00,66.3,56.6,30.22,SW,235,0.0,0.0,71,0.00,CLR,,0.01,WeatherDisplay:10.37,2013-09-28 22:07:00,
2013-09-28 18:12:00,66.1,56.4,30.22,WSW,255,0.0,0.0,71,0.00,CLR,,0.01,WeatherDisplay:10.37,2013-09-28 22:12:00,
2013-09-28 18:17:00,65.8,56.9,30.22,SSW,200,0.0,0.0,73,0.00,CLR,,0.01,WeatherDisplay:10.37,2013-09-28 22:17:00,
2013-09-28 18:22:00,65.4,56.5,30.22,SE,138,3.5,3.5,73,0.00,CLR,,0.01,WeatherDisplay:10.37,2013-09-28 22:22:00,
2013-09-28 18:28:00,65.0,56.5,30.22,SW,219,0.0,0.0,74,0.00,CLR,,0.01,WeatherDisplay:10.37,2013-09-28 22:28:00,
2013-09-28 18:33:00,64.5,56.4,30.22,South,177,0.0,0.0,75,0.00,CLR,,0.01,WeatherDisplay:10.37,2013-09-28 22:33:00,
2013-09-28 18:38:00,64.0,56.6,30.22,South,177,0.0,0.0,77,0.00,CLR,,0.01,WeatherDisplay:10.37,2013-09-28 22:38:00,
2013-09-28 18:43:00,63.4,56.4,30.22,South,177,0.0,0.0,78,0.00,CLR,,0.01,WeatherDisplay:10.37,2013-09-28 22:43:00,
2013-09-28 18:48:00,62.6,56.0,30.22,South,177,0.0,0.0,79,0.00,CLR,,0.01,WeatherDisplay:10.37,2013-09-28 22:48:00,
2013-09-28 18:53:00,62.0,55.8,30.22,South,177,0.0,0.0,80,0.00,CLR,,0.01,WeatherDisplay:10.37,2013-09-28 22:53:00,
2013-09-28 18:58:00,61.3,55.4,30.21,South,177,0.0,0.0,81,0.00,CLR,,0.01,WeatherDisplay:10.37,2013-09-28 22:58:00,
2013-09-28 19:03:00,60.5,55.3,30.22,South,177,0.0,0.0,83,0.00,,,0.01,WeatherDisplay:10.37,2013-09-28 23:03:00,
2013-09-28 19:08:00,59.9,55.1,30.22,South,177,0.0,0.0,84,0.00,,,0.01,WeatherDisplay:10.37,2013-09-28 23:08:00,
2013-09-28 19:13:00,59.3,54.8,30.22,South,177,0.0,0.0,85,0.00,,,0.01,WeatherDisplay:10.37,2013-09-28 23:13:00,
2013-09-28 19:18:00,58.8,54.6,30.22,South,177,0.0,0.0,86,0.00,,,0.01,WeatherDisplay:10.37,2013-09-28 23:18:00,
2013-09-28 19:23:00,58.4,54.5,30.22,South,177,0.0,0.0,87,0.00,,,0.01,WeatherDisplay:10.37,2013-09-28 23:23:00,
2013-09-28 19:28:00,57.9,54.4,30.21,South,177,0.0,0.0,88,0.00,,,0.01,WeatherDisplay:10.37,2013-09-28 23:28:00,
2013-09-28 19:33:00,57.6,54.4,30.21,South,177,0.0,0.0,89,0.00,,,0.01,WeatherDisplay:10.37,2013-09-28 23:33:00,
2013-09-28 19:38:00,57.1,53.9,30.22,South,177,0.0,0.0,89,0.00,,,0.01,WeatherDisplay:10.37,2013-09-28 23:38:00,
2013-09-28 19:43:00,56.8,53.9,30.21,South,177,0.0,0.0,90,0.00,,,0.01,WeatherDisplay:10.37,2013-09-28 23:43:00,
2013-09-28 19:48:00,56.5,53.6,30.21,South,177,0.0,0.0,90,0.00,,,0.01,WeatherDisplay:10.37,2013-09-28 23:48:00,
2013-09-28 19:53:00,56.4,53.8,30.21,South,177,0.0,0.0,91,0.00,,,0.01,WeatherDisplay:10.37,2013-09-28 23:53:00,
2013-09-28 19:58:00,56.3,53.7,30.21,South,177,0.0,0.0,91,0.00,,,0.01,WeatherDisplay:10.37,2013-09-28 23:58:00,
2013-09-28 20:03:00,56.2,53.6,30.22,South,177,0.0,0.0,91,0.00,,,0.01,WeatherDisplay:10.37,2013-09-29 00:03:00,
2013-09-28 20:08:00,56.2,53.6,30.22,South,177,0.0,0.0,91,0.00,,,0.01,WeatherDisplay:10.37,2013-09-29 00:08:00,
2013-09-28 20:14:00,56.2,53.6,30.22,South,177,0.0,0.0,91,0.00,,,0.01,WeatherDisplay:10.37,2013-09-29 00:14:00,
2013-09-28 20:19:00,56.2,53.6,30.22,South,177,0.0,0.0,91,0.00,,,0.01,WeatherDisplay:10.37,2013-09-29 00:19:00,
2013-09-28 20:24:00,55.9,53.3,30.22,South,177,0.0,0.0,91,0.00,,,0.01,WeatherDisplay:10.37,2013-09-29 00:24:00,
2013-09-28 20:29:00,55.6,53.0,30.22,South,177,0.0,0.0,91,0.00,,,0.01,WeatherDisplay:10.37,2013-09-29 00:29:00,
2013-09-28 20:34:00,55.4,52.8,30.22,South,177,0.0,0.0,91,0.00,,,0.01,WeatherDisplay:10.37,2013-09-29 00:34:00,
2013-09-28 20:39:00,55.2,52.6,30.21,South,177,0.0,0.0,91,0.00,,,0.01,WeatherDisplay:10.37,2013-09-29 00:39:00,
2013-09-28 20:44:00,55.0,52.7,30.21,South,177,0.0,0.0,92,0.00,,,0.01,WeatherDisplay:10.37,2013-09-29 00:44:00,
2013-09-28 20:49:00,54.9,52.6,30.21,South,177,0.0,0.0,92,0.00,,,0.01,WeatherDisplay:10.37,2013-09-29 00:49:00,
2013-09-28 20:54:00,54.7,52.4,30.21,South,177,0.0,0.0,92,0.00,,,0.01,WeatherDisplay:10.37,2013-09-29 00:54:00,
2013-09-28 20:59:00,54.7,52.4,30.21,South,177,0.0,0.0,92,0.00,,,0.01,WeatherDisplay:10.37,2013-09-29 00:59:00,
2013-09-28 21:04:00,54.8,52.5,30.21,South,177,0.0,0.0,92,0.00,,,0.01,WeatherDisplay:10.37,2013-09-29 01:04:00,
2013-09-28 21:09:00,54.8,52.5,30.21,South,177,0.0,0.0,92,0.00,,,0.01,WeatherDisplay:10.37,2013-09-29 01:09:00,
2013-09-28 21:14:00,54.7,52.4,30.21,South,177,0.0,0.0,92,0.00,,,0.01,WeatherDisplay:10.37,2013-09-29 01:14:00,
2013-09-28 21:19:00,54.6,52.3,30.21,South,177,0.0,0.0,92,0.00,,,0.01,WeatherDisplay:10.37,2013-09-29 01:19:00,
2013-09-28 21:24:00,54.5,52.2,30.21,South,177,0.0,0.0,92,0.00,,,0.01,WeatherDisplay:10.37,2013-09-29 01:24:00,
2013-09-28 21:29:00,54.6,52.3,30.21,South,177,0.0,0.0,92,0.00,,,0.01,WeatherDisplay:10.37,2013-09-29 01:29:00,
2013-09-28 21:34:00,54.4,52.1,30.21,South,177,0.0,0.0,92,0.00,,,0.01,WeatherDisplay:10.37,2013-09-29 01:34:00,
2013-09-28 21:39:00,54.3,52.0,30.21,South,177,0.0,0.0,92,0.00,,,0.01,WeatherDisplay:10.37,2013-09-29 01:39:00,
2013-09-28 21:45:00,54.2,51.9,30.21,South,177,0.0,0.0,92,0.00,,,0.01,WeatherDisplay:10.37,2013-09-29 01:45:00,
2013-09-28 21:50:00,54.4,52.1,30.21,South,177,0.0,0.0,92,0.00,,,0.01,WeatherDisplay:10.37,2013-09-29 01:50:00,
2013-09-28 21:55:00,54.7,52.4,30.21,South,177,0.0,0.0,92,0.00,,,0.01,WeatherDisplay:10.37,2013-09-29 01:55:00,
2013-09-28 22:00:00,55.0,52.7,30.21,ESE,122,0.0,0.0,92,0.00,,,0.01,WeatherDisplay:10.37,2013-09-29 02:00:00,
2013-09-28 22:05:00,55.1,52.8,30.21,ESE,123,0.0,0.0,92,0.00,,,0.01,WeatherDisplay:10.37,2013-09-29 02:05:00,
2013-09-28 22:10:00,55.0,52.7,30.21,ESE,122,0.0,0.0,92,0.00,,,0.01,WeatherDisplay:10.37,2013-09-29 02:10:00,
2013-09-28 22:15:00,54.9,52.6,30.21,ESE,122,0.0,0.0,92,0.00,,,0.01,WeatherDisplay:10.37,2013-09-29 02:15:00,
2013-09-28 22:20:00,54.6,52.3,30.21,ESE,122,0.0,0.0,92,0.00,,,0.01,WeatherDisplay:10.37,2013-09-29 02:20:00,
2013-09-28 22:25:00,54.3,52.0,30.20,ESE,122,0.0,0.0,92,0.00,,,0.01,WeatherDisplay:10.37,2013-09-29 02:25:00,
2013-09-28 22:30:00,54.1,51.8,30.20,ESE,122,0.0,0.0,92,0.00,,,0.01,WeatherDisplay:10.37,2013-09-29 02:30:00,
2013-09-28 22:35:00,53.9,51.6,30.20,ESE,122,0.0,0.0,92,0.00,,,0.01,WeatherDisplay:10.37,2013-09-29 02:35:00,
2013-09-28 22:40:00,53.6,51.3,30.20,ESE,122,0.0,0.0,92,0.00,,,0.01,WeatherDisplay:10.37,2013-09-29 02:40:00,
2013-09-28 22:45:00,53.2,50.9,30.20,ESE,122,0.0,0.0,92,0.00,,,0.01,WeatherDisplay:10.37,2013-09-29 02:45:00,
2013-09-28 22:50:00,52.9,50.6,30.20,ESE,122,0.0,0.0,92,0.00,,,0.01,WeatherDisplay:10.37,2013-09-29 02:50:00,
2013-09-28 22:55:00,52.7,50.4,30.20,ESE,122,0.0,0.0,92,0.00,,,0.01,WeatherDisplay:10.37,2013-09-29 02:55:00,
2013-09-28 23:00:00,52.7,50.4,30.20,ESE,122,0.0,0.0,92,0.00,,,0.01,WeatherDisplay:10.37,2013-09-29 03:00:00,
2013-09-28 23:05:00,52.7,50.1,30.20,ESE,122,0.0,0.0,91,0.00,,,0.01,WeatherDisplay:10.37,2013-09-29 03:05:00,
2013-09-28 23:10:00,52.5,50.2,30.20,ESE,122,0.0,0.0,92,0.00,,,0.01,WeatherDisplay:10.37,2013-09-29 03:10:00,
2013-09-28 23:15:00,52.4,49.8,30.20,ESE,122,0.0,0.0,91,0.00,,,0.01,WeatherDisplay:10.37,2013-09-29 03:15:00,
2013-09-28 23:20:00,52.2,49.7,30.20,ESE,122,0.0,0.0,91,0.00,,,0.01,WeatherDisplay:10.37,2013-09-29 03:20:00,
2013-09-28 23:26:00,52.1,49.6,30.20,ESE,122,0.0,0.0,91,0.00,,,0.01,WeatherDisplay:10.37,2013-09-29 03:26:00,
2013-09-28 23:31:00,51.8,49.3,30.20,ESE,122,0.0,0.0,91,0.00,,,0.01,WeatherDisplay:10.37,2013-09-29 03:31:00,
2013-09-28 23:36:00,51.7,49.2,30.20,ESE,122,0.0,0.0,91,0.00,,,0.01,WeatherDisplay:10.37,2013-09-29 03:36:00,
2013-09-28 23:41:00,51.5,49.0,30.20,ESE,122,0.0,0.0,91,0.00,,,0.01,WeatherDisplay:10.37,2013-09-29 03:41:00,
2013-09-28 23:46:00,51.5,49.0,30.20,ESE,122,0.0,0.0,91,0.00,,,0.01,WeatherDisplay:10.37,2013-09-29 03:46:00,
2013-09-28 23:51:00,51.5,48.7,30.20,ESE,122,0.0,0.0,90,0.00,,,0.01,WeatherDisplay:10.37,2013-09-29 03:51:00,
2013-09-28 23:56:00,51.3,48.8,30.20,ESE,122,0.0,0.0,91,0.00,,,0.01,WeatherDisplay:10.37,2013-09-29 03:56:00,